Billings, MT (59102)

8:41 PM MDT on July 26, 2016 (GMT -0600)
| | Change Station
Active Advisory: Special Statement Active Notice: Record Report

Elev -9999 ft 0.00 °N, 0.00 °E | Updated

Mostly Cloudy
Mostly Cloudy
73 °F
Feels Like 73 °F
N
8
Wind Variable Wind from NNW
Gusts mph

Today
High -- | Low -- °F
--% Chance of Precip.
Yesterday
High -- | Low -- °F
Precip. -- in
Pressure 30.06 in
Visibility 10.0 miles
Clouds Scattered Clouds 7000 ft
Overcast 10000 ft
Dew Point 51 °F
Humidity 47%
Rainfall --
Snow Depth Not available.
5:51 AM 8:49 PM
Waning Gibbous, 48% visible
SPECI KBIL 270211Z 31024G31KT 10SM -TSRA SCT070CB OVC100 26/09 A3006 RMK AO2 PK WND 32031/0210 WSHFT 0151 RAB0155 OCNL LTGICCG OHD TS OHD MOV E P0000 T02560089
Pressure 30.06 in
Visibility 10.0 miles
Clouds Scattered Clouds 7000 ft
Overcast 10000 ft
Dew Point 51 °F
Humidity 47%
Rainfall --
Snow Depth Not available.
5:51 AM 8:49 PM
Waning Gibbous, 48% visible
SPECI KBIL 270211Z 31024G31KT 10SM -TSRA SCT070CB OVC100 26/09 A3006 RMK AO2 PK WND 32031/0210 WSHFT 0151 RAB0155 OCNL LTGICCG OHD TS OHD MOV E P0000 T02560089

10-Day Weather Forecast

Almanac

Astronomy

Jul. 26, 2016 Rise Set
Actual Time
Civil Twilight
Nautical Twilight
Astronomical Twilight
Moon
Length of Visible Light
Length of Day
Tomorrow will be .
, % of the Moon is Illuminated

Today's Extremes

State Highs State Lows

Community

WunderPhotos

Upload Photos

1,927,784 photos uploaded!

WunderBlog® & News

Nearby

Air Quality

  Air Quality AQ Index Pollutant
Not available.

Snow Depth

Station Depth Elevation

Earthquake Activity

City Distance Mag. Time & Date
Minimum magnitude displayed is 2.5.

Coastal Water Temperatures

Place Temperature

Stations

Nearby Weather Stations

Station Location Temp. Windchill Dew Point Humidity Wind Precip. Elev Updated Type
                   

Watches & Warnings

Special Statement
Issued: 8:19 PM MDT Jul. 26, 2016 – National Weather Service

... Significant weather advisory...

At 818 PM MDT... Doppler radar was tracking a strong thunderstorm over
Lockwood... or east of Billings... moving east at 15 mph.

Wind gusts up to 50 mph are possible and occasional lightning
are possible with this storm.

Locations impacted include...
Lockwood and crow Indian reservation.

Lat... Lon 4546 10841 4587 10841 4588 10791 4544 10791
time... Mot... loc 0218z 269deg 15kt 4580 10837


Singer


819 PM MDT Tue Jul 26 2016

... Significant weather advisory...

At 818 PM MDT... Doppler radar was tracking a strong thunderstorm over
Lockwood... or east of Billings... moving east at 15 mph.

Wind gusts up to 50 mph are possible and occasional lightning
are possible with this storm.

Locations impacted include...
Lockwood and crow Indian reservation.

Lat... Lon 4546 10841 4587 10841 4588 10791 4544 10791
time... Mot... loc 0218z 269deg 15kt 4580 10837


Singer